sensor_id;sensor_type;location;lat;lon;timestamp;P1;durP1;ratioP1;P2;durP2;ratioP2
26946;SDS011;14501;52.282;10.560;2022-11-20T00:00:46;23.20;;;12.27;;
26946;SDS011;14501;52.282;10.560;2022-11-20T00:03:12;23.38;;;11.68;;
26946;SDS011;14501;52.282;10.560;2022-11-20T00:05:38;22.52;;;12.10;;
26946;SDS011;14501;52.282;10.560;2022-11-20T00:08:03;21.38;;;12.38;;
26946;SDS011;14501;52.282;10.560;2022-11-20T00:10:29;23.48;;;11.60;;
26946;SDS011;14501;52.282;10.560;2022-11-20T00:12:55;20.85;;;11.70;;
26946;SDS011;14501;52.282;10.560;2022-11-20T00:15:23;18.63;;;10.63;;
26946;SDS011;14501;52.282;10.560;2022-11-20T00:17:48;16.88;;;9.90;;
26946;SDS011;14501;52.282;10.560;2022-11-20T00:20:14;17.77;;;10.85;;
26946;SDS011;14501;52.282;10.560;2022-11-20T00:22:40;18.58;;;10.52;;
26946;SDS011;14501;52.282;10.560;2022-11-20T00:25:05;16.52;;;9.88;;
26946;SDS011;14501;52.282;10.560;2022-11-20T00:27:31;16.52;;;9.82;;
26946;SDS011;14501;52.282;10.560;2022-11-20T00:29:57;17.88;;;9.73;;
26946;SDS011;14501;52.282;10.560;2022-11-20T00:32:22;18.02;;;9.85;;
26946;SDS011;14501;52.282;10.560;2022-11-20T00:34:48;18.60;;;10.23;;
26946;SDS011;14501;52.282;10.560;2022-11-20T00:37:14;15.10;;;9.48;;
26946;SDS011;14501;52.282;10.560;2022-11-20T00:39:39;15.88;;;9.90;;
26946;SDS011;14501;52.282;10.560;2022-11-20T00:42:05;16.13;;;10.23;;
26946;SDS011;14501;52.282;10.560;2022-11-20T00:44:30;18.38;;;10.55;;
26946;SDS011;14501;52.282;10.560;2022-11-20T00:46:56;17.05;;;9.45;;
26946;SDS011;14501;52.282;10.560;2022-11-20T00:49:22;16.42;;;9.45;;
26946;SDS011;14501;52.282;10.560;2022-11-20T00:51:47;17.00;;;10.10;;
26946;SDS011;14501;52.282;10.560;2022-11-20T00:54:13;18.27;;;9.35;;
26946;SDS011;14501;52.282;10.560;2022-11-20T00:56:38;15.05;;;10.52;;
26946;SDS011;14501;52.282;10.560;2022-11-20T00:59:05;15.07;;;9.65;;
26946;SDS011;14501;52.282;10.560;2022-11-20T01:01:30;17.55;;;9.40;;
26946;SDS011;14501;52.282;10.560;2022-11-20T01:03:57;16.73;;;9.68;;
26946;SDS011;14501;52.282;10.560;2022-11-20T01:06:25;19.55;;;10.57;;
26946;SDS011;14501;52.282;10.560;2022-11-20T01:08:53;23.23;;;10.05;;
26946;SDS011;14501;52.282;10.560;2022-11-20T01:11:23;14.77;;;8.98;;
26946;SDS011;14501;52.282;10.560;2022-11-20T01:13:51;16.58;;;9.38;;
26946;SDS011;14501;52.282;10.560;2022-11-20T01:18:46;18.42;;;9.38;;
26946;SDS011;14501;52.282;10.560;2022-11-20T01:21:14;12.57;;;8.13;;
26946;SDS011;14501;52.282;10.560;2022-11-20T01:23:45;17.17;;;9.43;;
26946;SDS011;14501;52.282;10.560;2022-11-20T01:26:12;15.35;;;9.45;;
26946;SDS011;14501;52.282;10.560;2022-11-20T01:28:40;15.88;;;9.07;;
26946;SDS011;14501;52.282;10.560;2022-11-20T01:33:40;16.10;;;9.30;;
26946;SDS011;14501;52.282;10.560;2022-11-20T01:36:07;14.85;;;8.98;;
26946;SDS011;14501;52.282;10.560;2022-11-20T01:38:33;16.15;;;9.23;;
26946;SDS011;14501;52.282;10.560;2022-11-20T01:40:59;16.55;;;9.55;;
26946;SDS011;14501;52.282;10.560;2022-11-20T01:43:24;15.80;;;9.27;;
26946;SDS011;14501;52.282;10.560;2022-11-20T01:48:39;19.98;;;9.32;;
26946;SDS011;14501;52.282;10.560;2022-11-20T01:51:13;16.55;;;8.50;;
26946;SDS011;14501;52.282;10.560;2022-11-20T01:53:43;17.73;;;9.23;;
26946;SDS011;14501;52.282;10.560;2022-11-20T01:56:10;15.32;;;9.02;;
26946;SDS011;14501;52.282;10.560;2022-11-20T01:58:39;15.50;;;9.63;;
26946;SDS011;14501;52.282;10.560;2022-11-20T02:01:12;18.17;;;9.23;;
26946;SDS011;14501;52.282;10.560;2022-11-20T02:03:38;17.10;;;9.88;;
26946;SDS011;14501;52.282;10.560;2022-11-20T02:06:07;16.98;;;10.15;;
26946;SDS011;14501;52.282;10.560;2022-11-20T02:08:41;19.15;;;9.75;;
26946;SDS011;14501;52.282;10.560;2022-11-20T02:11:07;15.68;;;9.98;;
26946;SDS011;14501;52.282;10.560;2022-11-20T02:13:33;14.73;;;9.30;;
26946;SDS011;14501;52.282;10.560;2022-11-20T02:16:10;17.75;;;9.95;;
26946;SDS011;14501;52.282;10.560;2022-11-20T02:18:38;19.25;;;10.52;;
26946;SDS011;14501;52.282;10.560;2022-11-20T02:24:15;19.50;;;10.25;;
26946;SDS011;14501;52.282;10.560;2022-11-20T02:29:25;19.17;;;10.30;;
26946;SDS011;14501;52.282;10.560;2022-11-20T02:31:55;17.92;;;9.82;;
26946;SDS011;14501;52.282;10.560;2022-11-20T02:34:22;16.85;;;10.13;;
26946;SDS011;14501;52.282;10.560;2022-11-20T02:36:48;16.73;;;9.98;;
26946;SDS011;14501;52.282;10.560;2022-11-20T02:39:16;17.85;;;10.25;;
26946;SDS011;14501;52.282;10.560;2022-11-20T02:41:42;17.33;;;10.55;;
26946;SDS011;14501;52.282;10.560;2022-11-20T02:44:08;20.38;;;10.43;;
26946;SDS011;14501;52.282;10.560;2022-11-20T02:46:34;20.83;;;10.80;;
26946;SDS011;14501;52.282;10.560;2022-11-20T02:49:00;19.40;;;10.60;;
26946;SDS011;14501;52.282;10.560;2022-11-20T02:51:27;18.00;;;10.68;;
26946;SDS011;14501;52.282;10.560;2022-11-20T02:53:53;17.92;;;10.07;;
26946;SDS011;14501;52.282;10.560;2022-11-20T02:56:19;15.10;;;8.93;;
26946;SDS011;14501;52.282;10.560;2022-11-20T02:58:45;17.55;;;10.40;;
26946;SDS011;14501;52.282;10.560;2022-11-20T03:01:11;16.08;;;10.02;;
26946;SDS011;14501;52.282;10.560;2022-11-20T03:03:37;20.00;;;10.70;;
26946;SDS011;14501;52.282;10.560;2022-11-20T03:06:02;17.77;;;9.43;;
26946;SDS011;14501;52.282;10.560;2022-11-20T03:08:28;18.80;;;9.90;;
26946;SDS011;14501;52.282;10.560;2022-11-20T03:10:54;16.27;;;8.93;;
26946;SDS011;14501;52.282;10.560;2022-11-20T03:13:19;15.90;;;10.50;;
26946;SDS011;14501;52.282;10.560;2022-11-20T03:15:45;16.17;;;9.57;;
26946;SDS011;14501;52.282;10.560;2022-11-20T03:18:10;14.57;;;8.23;;
26946;SDS011;14501;52.282;10.560;2022-11-20T03:20:37;17.80;;;9.40;;
26946;SDS011;14501;52.282;10.560;2022-11-20T03:23:03;18.83;;;10.68;;
26946;SDS011;14501;52.282;10.560;2022-11-20T03:25:28;14.50;;;9.25;;
26946;SDS011;14501;52.282;10.560;2022-11-20T03:27:54;18.35;;;10.45;;
26946;SDS011;14501;52.282;10.560;2022-11-20T03:30:19;16.88;;;9.70;;
26946;SDS011;14501;52.282;10.560;2022-11-20T03:32:45;17.08;;;10.38;;
26946;SDS011;14501;52.282;10.560;2022-11-20T03:35:11;17.27;;;10.25;;
26946;SDS011;14501;52.282;10.560;2022-11-20T03:37:37;15.05;;;9.25;;
26946;SDS011;14501;52.282;10.560;2022-11-20T03:40:03;14.82;;;9.63;;
26946;SDS011;14501;52.282;10.560;2022-11-20T03:42:29;16.05;;;8.65;;
26946;SDS011;14501;52.282;10.560;2022-11-20T03:45:13;15.57;;;9.48;;
26946;SDS011;14501;52.282;10.560;2022-11-20T03:47:40;18.58;;;9.65;;
26946;SDS011;14501;52.282;10.560;2022-11-20T03:50:06;18.33;;;9.27;;
26946;SDS011;14501;52.282;10.560;2022-11-20T03:52:33;15.40;;;9.48;;
26946;SDS011;14501;52.282;10.560;2022-11-20T03:54:58;16.02;;;9.70;;
26946;SDS011;14501;52.282;10.560;2022-11-20T03:57:24;15.60;;;8.88;;
26946;SDS011;14501;52.282;10.560;2022-11-20T03:59:49;16.48;;;9.27;;
26946;SDS011;14501;52.282;10.560;2022-11-20T04:02:15;17.73;;;10.07;;
26946;SDS011;14501;52.282;10.560;2022-11-20T04:04:41;14.85;;;9.73;;
26946;SDS011;14501;52.282;10.560;2022-11-20T04:07:06;16.33;;;9.77;;
26946;SDS011;14501;52.282;10.560;2022-11-20T04:09:32;16.90;;;9.48;;
26946;SDS011;14501;52.282;10.560;2022-11-20T04:11:57;16.02;;;9.73;;
26946;SDS011;14501;52.282;10.560;2022-11-20T04:14:23;17.10;;;9.70;;
26946;SDS011;14501;52.282;10.560;2022-11-20T04:16:49;15.85;;;9.45;;
26946;SDS011;14501;52.282;10.560;2022-11-20T04:19:15;18.00;;;9.57;;
26946;SDS011;14501;52.282;10.560;2022-11-20T04:21:42;18.35;;;9.68;;
26946;SDS011;14501;52.282;10.560;2022-11-20T04:24:08;18.08;;;10.10;;
26946;SDS011;14501;52.282;10.560;2022-11-20T04:26:35;15.00;;;8.75;;
26946;SDS011;14501;52.282;10.560;2022-11-20T04:29:02;15.85;;;9.70;;
26946;SDS011;14501;52.282;10.560;2022-11-20T04:31:29;15.20;;;9.43;;
26946;SDS011;14501;52.282;10.560;2022-11-20T04:34:03;16.80;;;10.02;;
26946;SDS011;14501;52.282;10.560;2022-11-20T04:36:30;16.88;;;9.30;;
26946;SDS011;14501;52.282;10.560;2022-11-20T04:38:58;18.55;;;10.60;;
26946;SDS011;14501;52.282;10.560;2022-11-20T04:41:25;17.35;;;10.13;;
26946;SDS011;14501;52.282;10.560;2022-11-20T04:44:01;19.25;;;11.05;;
26946;SDS011;14501;52.282;10.560;2022-11-20T04:46:30;18.33;;;10.60;;
26946;SDS011;14501;52.282;10.560;2022-11-20T04:48:57;17.20;;;10.15;;
26946;SDS011;14501;52.282;10.560;2022-11-20T04:51:22;16.52;;;9.98;;
26946;SDS011;14501;52.282;10.560;2022-11-20T04:53:48;19.02;;;11.00;;
26946;SDS011;14501;52.282;10.560;2022-11-20T04:56:14;18.77;;;10.77;;
26946;SDS011;14501;52.282;10.560;2022-11-20T04:58:40;18.48;;;10.63;;
26946;SDS011;14501;52.282;10.560;2022-11-20T05:01:08;16.73;;;10.30;;
26946;SDS011;14501;52.282;10.560;2022-11-20T05:03:39;19.00;;;11.40;;
26946;SDS011;14501;52.282;10.560;2022-11-20T05:06:06;18.35;;;11.27;;
26946;SDS011;14501;52.282;10.560;2022-11-20T05:08:32;17.75;;;10.40;;
26946;SDS011;14501;52.282;10.560;2022-11-20T05:11:08;18.70;;;10.90;;
26946;SDS011;14501;52.282;10.560;2022-11-20T05:13:35;17.17;;;9.95;;
26946;SDS011;14501;52.282;10.560;2022-11-20T05:16:02;19.90;;;10.85;;
26946;SDS011;14501;52.282;10.560;2022-11-20T05:18:30;19.45;;;11.10;;
26946;SDS011;14501;52.282;10.560;2022-11-20T05:20:56;20.85;;;10.13;;
26946;SDS011;14501;52.282;10.560;2022-11-20T05:23:22;18.77;;;10.52;;
26946;SDS011;14501;52.282;10.560;2022-11-20T05:25:51;16.27;;;10.13;;
26946;SDS011;14501;52.282;10.560;2022-11-20T05:28:17;24.30;;;11.07;;
26946;SDS011;14501;52.282;10.560;2022-11-20T05:30:43;17.33;;;9.85;;
26946;SDS011;14501;52.282;10.560;2022-11-20T05:33:09;17.33;;;10.40;;
26946;SDS011;14501;52.282;10.560;2022-11-20T05:35:34;17.70;;;10.10;;
26946;SDS011;14501;52.282;10.560;2022-11-20T05:38:00;16.27;;;9.80;;
26946;SDS011;14501;52.282;10.560;2022-11-20T05:40:25;15.95;;;10.45;;
26946;SDS011;14501;52.282;10.560;2022-11-20T05:42:51;16.85;;;9.45;;
26946;SDS011;14501;52.282;10.560;2022-11-20T05:45:16;16.88;;;10.05;;
26946;SDS011;14501;52.282;10.560;2022-11-20T05:47:42;17.77;;;11.25;;
26946;SDS011;14501;52.282;10.560;2022-11-20T05:50:08;17.23;;;10.10;;
26946;SDS011;14501;52.282;10.560;2022-11-20T05:52:33;16.90;;;10.07;;
26946;SDS011;14501;52.282;10.560;2022-11-20T05:54:59;15.88;;;9.60;;
26946;SDS011;14501;52.282;10.560;2022-11-20T05:57:25;15.20;;;9.25;;
26946;SDS011;14501;52.282;10.560;2022-11-20T05:59:50;19.75;;;11.15;;
26946;SDS011;14501;52.282;10.560;2022-11-20T06:02:16;17.15;;;9.68;;
26946;SDS011;14501;52.282;10.560;2022-11-20T06:04:42;18.73;;;10.57;;
26946;SDS011;14501;52.282;10.560;2022-11-20T06:07:07;18.33;;;10.07;;
26946;SDS011;14501;52.282;10.560;2022-11-20T06:09:33;15.38;;;8.40;;
26946;SDS011;14501;52.282;10.560;2022-11-20T06:11:59;15.15;;;9.15;;
26946;SDS011;14501;52.282;10.560;2022-11-20T06:14:25;20.42;;;10.02;;
26946;SDS011;14501;52.282;10.560;2022-11-20T06:16:50;14.82;;;9.02;;
26946;SDS011;14501;52.282;10.560;2022-11-20T06:19:16;14.50;;;9.35;;
26946;SDS011;14501;52.282;10.560;2022-11-20T06:21:42;16.38;;;9.32;;
26946;SDS011;14501;52.282;10.560;2022-11-20T06:24:11;16.45;;;9.52;;
26946;SDS011;14501;52.282;10.560;2022-11-20T06:26:36;18.52;;;9.60;;
26946;SDS011;14501;52.282;10.560;2022-11-20T06:29:02;17.38;;;9.20;;
26946;SDS011;14501;52.282;10.560;2022-11-20T06:31:28;14.98;;;9.57;;
26946;SDS011;14501;52.282;10.560;2022-11-20T06:33:53;15.25;;;9.30;;
26946;SDS011;14501;52.282;10.560;2022-11-20T06:36:20;14.50;;;9.48;;
26946;SDS011;14501;52.282;10.560;2022-11-20T06:38:47;16.35;;;9.32;;
26946;SDS011;14501;52.282;10.560;2022-11-20T06:41:14;17.33;;;9.60;;
26946;SDS011;14501;52.282;10.560;2022-11-20T06:43:42;13.23;;;8.32;;
26946;SDS011;14501;52.282;10.560;2022-11-20T06:46:09;14.27;;;8.73;;
26946;SDS011;14501;52.282;10.560;2022-11-20T06:48:36;15.05;;;9.27;;
26946;SDS011;14501;52.282;10.560;2022-11-20T06:51:06;15.95;;;9.38;;
26946;SDS011;14501;52.282;10.560;2022-11-20T06:53:32;14.65;;;9.13;;
26946;SDS011;14501;52.282;10.560;2022-11-20T06:55:58;13.98;;;8.40;;
26946;SDS011;14501;52.282;10.560;2022-11-20T06:58:26;14.18;;;8.55;;
26946;SDS011;14501;52.282;10.560;2022-11-20T07:00:52;16.52;;;9.05;;
26946;SDS011;14501;52.282;10.560;2022-11-20T07:03:19;13.73;;;8.73;;
26946;SDS011;14501;52.282;10.560;2022-11-20T07:05:44;12.73;;;8.30;;
26946;SDS011;14501;52.282;10.560;2022-11-20T07:08:11;14.68;;;9.07;;
26946;SDS011;14501;52.282;10.560;2022-11-20T07:10:37;11.77;;;8.07;;
26946;SDS011;14501;52.282;10.560;2022-11-20T07:13:03;15.02;;;8.80;;
26946;SDS011;14501;52.282;10.560;2022-11-20T07:15:29;16.63;;;9.35;;
26946;SDS011;14501;52.282;10.560;2022-11-20T07:17:55;12.63;;;8.52;;
26946;SDS011;14501;52.282;10.560;2022-11-20T07:20:20;13.75;;;8.77;;
26946;SDS011;14501;52.282;10.560;2022-11-20T07:22:46;15.88;;;9.63;;
26946;SDS011;14501;52.282;10.560;2022-11-20T07:25:12;13.30;;;9.00;;
26946;SDS011;14501;52.282;10.560;2022-11-20T07:27:37;14.23;;;9.00;;
26946;SDS011;14501;52.282;10.560;2022-11-20T07:30:03;14.52;;;9.45;;
26946;SDS011;14501;52.282;10.560;2022-11-20T07:32:29;15.65;;;9.35;;
26946;SDS011;14501;52.282;10.560;2022-11-20T07:34:55;15.90;;;9.45;;
26946;SDS011;14501;52.282;10.560;2022-11-20T07:37:20;14.50;;;8.63;;
26946;SDS011;14501;52.282;10.560;2022-11-20T07:39:46;13.55;;;8.32;;
26946;SDS011;14501;52.282;10.560;2022-11-20T07:42:12;12.85;;;8.68;;
26946;SDS011;14501;52.282;10.560;2022-11-20T07:44:38;17.42;;;9.45;;
26946;SDS011;14501;52.282;10.560;2022-11-20T07:47:03;13.55;;;9.25;;
26946;SDS011;14501;52.282;10.560;2022-11-20T07:49:29;18.23;;;9.57;;
26946;SDS011;14501;52.282;10.560;2022-11-20T07:51:55;15.75;;;9.35;;
26946;SDS011;14501;52.282;10.560;2022-11-20T07:54:21;16.25;;;9.98;;
26946;SDS011;14501;52.282;10.560;2022-11-20T07:56:47;16.63;;;9.27;;
26946;SDS011;14501;52.282;10.560;2022-11-20T07:59:13;15.45;;;9.23;;
26946;SDS011;14501;52.282;10.560;2022-11-20T08:01:40;15.48;;;9.43;;
26946;SDS011;14501;52.282;10.560;2022-11-20T08:04:06;16.58;;;9.13;;
26946;SDS011;14501;52.282;10.560;2022-11-20T08:06:32;19.45;;;9.93;;
26946;SDS011;14501;52.282;10.560;2022-11-20T08:08:58;12.93;;;8.43;;
26946;SDS011;14501;52.282;10.560;2022-11-20T08:11:23;14.77;;;9.13;;
26946;SDS011;14501;52.282;10.560;2022-11-20T08:14:08;14.88;;;9.15;;
26946;SDS011;14501;52.282;10.560;2022-11-20T08:16:40;12.80;;;8.43;;
26946;SDS011;14501;52.282;10.560;2022-11-20T08:19:10;13.50;;;9.07;;
26946;SDS011;14501;52.282;10.560;2022-11-20T08:21:36;15.65;;;8.30;;
26946;SDS011;14501;52.282;10.560;2022-11-20T08:24:02;13.77;;;8.60;;
26946;SDS011;14501;52.282;10.560;2022-11-20T08:26:28;13.10;;;8.38;;
26946;SDS011;14501;52.282;10.560;2022-11-20T08:28:54;15.70;;;8.10;;
26946;SDS011;14501;52.282;10.560;2022-11-20T08:31:21;10.95;;;7.75;;
26946;SDS011;14501;52.282;10.560;2022-11-20T08:33:51;14.45;;;8.20;;
26946;SDS011;14501;52.282;10.560;2022-11-20T08:36:17;12.00;;;8.15;;
26946;SDS011;14501;52.282;10.560;2022-11-20T08:38:50;14.10;;;8.80;;
26946;SDS011;14501;52.282;10.560;2022-11-20T08:41:17;13.75;;;8.77;;
26946;SDS011;14501;52.282;10.560;2022-11-20T08:43:49;12.93;;;8.43;;
26946;SDS011;14501;52.282;10.560;2022-11-20T08:46:15;12.18;;;8.07;;
26946;SDS011;14501;52.282;10.560;2022-11-20T08:48:41;13.90;;;8.68;;
26946;SDS011;14501;52.282;10.560;2022-11-20T08:51:07;13.00;;;8.52;;
26946;SDS011;14501;52.282;10.560;2022-11-20T08:53:33;12.70;;;8.55;;
26946;SDS011;14501;52.282;10.560;2022-11-20T08:55:59;13.73;;;8.80;;
26946;SDS011;14501;52.282;10.560;2022-11-20T08:58:25;15.93;;;9.02;;
26946;SDS011;14501;52.282;10.560;2022-11-20T09:00:51;15.35;;;8.85;;
26946;SDS011;14501;52.282;10.560;2022-11-20T09:03:17;13.57;;;8.85;;
26946;SDS011;14501;52.282;10.560;2022-11-20T09:05:42;12.75;;;8.57;;
26946;SDS011;14501;52.282;10.560;2022-11-20T09:08:08;12.95;;;8.32;;
26946;SDS011;14501;52.282;10.560;2022-11-20T09:10:34;10.85;;;7.50;;
26946;SDS011;14501;52.282;10.560;2022-11-20T09:13:00;15.25;;;8.95;;
26946;SDS011;14501;52.282;10.560;2022-11-20T09:15:26;12.95;;;8.45;;
26946;SDS011;14501;52.282;10.560;2022-11-20T09:20:18;13.27;;;8.00;;
26946;SDS011;14501;52.282;10.560;2022-11-20T09:22:45;11.88;;;7.78;;
26946;SDS011;14501;52.282;10.560;2022-11-20T09:25:10;14.65;;;9.30;;
26946;SDS011;14501;52.282;10.560;2022-11-20T09:27:36;14.27;;;8.35;;
26946;SDS011;14501;52.282;10.560;2022-11-20T09:30:02;13.40;;;8.73;;
26946;SDS011;14501;52.282;10.560;2022-11-20T09:32:28;14.23;;;7.70;;
26946;SDS011;14501;52.282;10.560;2022-11-20T09:34:53;11.80;;;7.53;;
26946;SDS011;14501;52.282;10.560;2022-11-20T09:37:19;13.80;;;7.55;;
26946;SDS011;14501;52.282;10.560;2022-11-20T09:39:45;13.00;;;7.93;;
26946;SDS011;14501;52.282;10.560;2022-11-20T09:55:47;11.30;;;6.97;;
26946;SDS011;14501;52.282;10.560;2022-11-20T10:06:48;10.40;;;7.38;;
26946;SDS011;14501;52.282;10.560;2022-11-20T10:09:37;12.20;;;7.18;;
26946;SDS011;14501;52.282;10.560;2022-11-20T10:12:19;10.65;;;6.25;;
26946;SDS011;14501;52.282;10.560;2022-11-20T10:23:31;10.68;;;6.60;;
26946;SDS011;14501;52.282;10.560;2022-11-20T10:26:12;9.75;;;6.40;;
26946;SDS011;14501;52.282;10.560;2022-11-20T10:31:32;10.05;;;6.15;;
26946;SDS011;14501;52.282;10.560;2022-11-20T10:34:03;10.93;;;5.95;;
26946;SDS011;14501;52.282;10.560;2022-11-20T10:36:39;9.73;;;6.05;;
26946;SDS011;14501;52.282;10.560;2022-11-20T10:39:16;12.77;;;6.90;;
26946;SDS011;14501;52.282;10.560;2022-11-20T10:41:55;8.90;;;6.35;;
26946;SDS011;14501;52.282;10.560;2022-11-20T10:44:22;12.52;;;7.50;;
26946;SDS011;14501;52.282;10.560;2022-11-20T10:47:18;10.52;;;7.00;;
26946;SDS011;14501;52.282;10.560;2022-11-20T10:55:01;11.25;;;7.22;;
26946;SDS011;14501;52.282;10.560;2022-11-20T11:00:32;12.45;;;7.32;;
26946;SDS011;14501;52.282;10.560;2022-11-20T11:02:58;12.20;;;7.68;;
26946;SDS011;14501;52.282;10.560;2022-11-20T11:08:00;10.10;;;7.32;;
26946;SDS011;14501;52.282;10.560;2022-11-20T11:10:28;19.38;;;7.80;;
26946;SDS011;14501;52.282;10.560;2022-11-20T11:13:03;10.48;;;6.85;;
26946;SDS011;14501;52.282;10.560;2022-11-20T11:15:39;10.95;;;7.22;;
26946;SDS011;14501;52.282;10.560;2022-11-20T11:18:09;12.57;;;7.60;;
26946;SDS011;14501;52.282;10.560;2022-11-20T11:20:36;11.32;;;7.72;;
26946;SDS011;14501;52.282;10.560;2022-11-20T11:23:02;13.27;;;7.28;;
26946;SDS011;14501;52.282;10.560;2022-11-20T11:27:56;13.02;;;8.50;;
26946;SDS011;14501;52.282;10.560;2022-11-20T11:30:23;11.65;;;7.50;;
26946;SDS011;14501;52.282;10.560;2022-11-20T11:33:01;13.10;;;7.80;;
26946;SDS011;14501;52.282;10.560;2022-11-20T11:35:31;13.00;;;8.43;;
26946;SDS011;14501;52.282;10.560;2022-11-20T11:38:04;14.50;;;8.60;;
26946;SDS011;14501;52.282;10.560;2022-11-20T11:40:35;13.43;;;8.23;;
26946;SDS011;14501;52.282;10.560;2022-11-20T11:43:05;11.88;;;8.00;;
26946;SDS011;14501;52.282;10.560;2022-11-20T11:46:01;13.20;;;7.25;;
26946;SDS011;14501;52.282;10.560;2022-11-20T11:48:29;12.88;;;7.70;;
26946;SDS011;14501;52.282;10.560;2022-11-20T11:50:54;11.93;;;7.60;;
26946;SDS011;14501;52.282;10.560;2022-11-20T11:53:21;11.65;;;7.20;;
26946;SDS011;14501;52.282;10.560;2022-11-20T11:56:08;11.52;;;7.38;;
26946;SDS011;14501;52.282;10.560;2022-11-20T11:58:44;10.32;;;6.97;;
26946;SDS011;14501;52.282;10.560;2022-11-20T12:04:18;12.35;;;7.05;;
26946;SDS011;14501;52.282;10.560;2022-11-20T12:06:58;12.13;;;7.55;;
26946;SDS011;14501;52.282;10.560;2022-11-20T12:09:33;11.93;;;7.72;;
26946;SDS011;14501;52.282;10.560;2022-11-20T12:12:08;10.02;;;7.18;;
26946;SDS011;14501;52.282;10.560;2022-11-20T12:14:42;10.90;;;7.18;;
26946;SDS011;14501;52.282;10.560;2022-11-20T12:17:11;11.50;;;7.47;;
26946;SDS011;14501;52.282;10.560;2022-11-20T12:19:38;10.07;;;7.03;;
26946;SDS011;14501;52.282;10.560;2022-11-20T12:30:28;10.77;;;6.80;;
26946;SDS011;14501;52.282;10.560;2022-11-20T12:49:03;8.77;;;6.35;;
26946;SDS011;14501;52.282;10.560;2022-11-20T12:57:49;9.30;;;6.22;;
26946;SDS011;14501;52.282;10.560;2022-11-20T13:00:22;9.75;;;6.53;;
26946;SDS011;14501;52.282;10.560;2022-11-20T13:08:27;12.00;;;7.28;;
26946;SDS011;14501;52.282;10.560;2022-11-20T13:16:54;10.73;;;6.25;;
26946;SDS011;14501;52.282;10.560;2022-11-20T13:19:26;12.15;;;6.90;;
26946;SDS011;14501;52.282;10.560;2022-11-20T13:21:53;8.07;;;5.70;;
26946;SDS011;14501;52.282;10.560;2022-11-20T13:29:34;10.77;;;5.75;;
26946;SDS011;14501;52.282;10.560;2022-11-20T13:32:03;11.38;;;6.25;;
26946;SDS011;14501;52.282;10.560;2022-11-20T13:34:39;10.32;;;5.97;;
26946;SDS011;14501;52.282;10.560;2022-11-20T13:37:24;10.35;;;6.63;;
26946;SDS011;14501;52.282;10.560;2022-11-20T13:39:50;10.27;;;6.80;;
26946;SDS011;14501;52.282;10.560;2022-11-20T13:45:00;10.95;;;6.68;;
26946;SDS011;14501;52.282;10.560;2022-11-20T13:47:27;11.13;;;6.45;;
26946;SDS011;14501;52.282;10.560;2022-11-20T13:49:55;11.27;;;7.18;;
26946;SDS011;14501;52.282;10.560;2022-11-20T13:58:05;10.68;;;7.03;;
26946;SDS011;14501;52.282;10.560;2022-11-20T14:00:33;9.93;;;6.25;;
26946;SDS011;14501;52.282;10.560;2022-11-20T14:03:09;11.23;;;7.50;;
26946;SDS011;14501;52.282;10.560;2022-11-20T14:05:50;10.73;;;6.38;;
26946;SDS011;14501;52.282;10.560;2022-11-20T14:08:23;11.45;;;6.65;;
26946;SDS011;14501;52.282;10.560;2022-11-20T14:11:03;11.45;;;6.38;;
26946;SDS011;14501;52.282;10.560;2022-11-20T14:13:38;11.07;;;6.45;;
26946;SDS011;14501;52.282;10.560;2022-11-20T14:16:04;11.00;;;7.07;;
26946;SDS011;14501;52.282;10.560;2022-11-20T14:18:30;12.07;;;7.07;;
26946;SDS011;14501;52.282;10.560;2022-11-20T14:20:55;12.73;;;7.40;;
26946;SDS011;14501;52.282;10.560;2022-11-20T14:23:28;10.60;;;6.50;;
26946;SDS011;14501;52.282;10.560;2022-11-20T14:28:27;11.05;;;6.63;;
26946;SDS011;14501;52.282;10.560;2022-11-20T14:30:55;10.10;;;6.68;;
26946;SDS011;14501;52.282;10.560;2022-11-20T14:33:22;14.35;;;6.93;;
26946;SDS011;14501;52.282;10.560;2022-11-20T14:35:56;11.70;;;7.20;;
26946;SDS011;14501;52.282;10.560;2022-11-20T14:40:50;14.80;;;7.30;;
26946;SDS011;14501;52.282;10.560;2022-11-20T14:43:23;11.68;;;7.57;;
26946;SDS011;14501;52.282;10.560;2022-11-20T14:45:58;9.90;;;6.68;;
26946;SDS011;14501;52.282;10.560;2022-11-20T14:49:00;11.15;;;7.78;;
26946;SDS011;14501;52.282;10.560;2022-11-20T14:51:37;11.15;;;7.03;;
26946;SDS011;14501;52.282;10.560;2022-11-20T14:54:20;14.02;;;7.97;;
26946;SDS011;14501;52.282;10.560;2022-11-20T14:56:54;13.73;;;7.75;;
26946;SDS011;14501;52.282;10.560;2022-11-20T14:59:24;13.38;;;7.88;;
26946;SDS011;14501;52.282;10.560;2022-11-20T15:01:58;10.43;;;7.10;;
26946;SDS011;14501;52.282;10.560;2022-11-20T15:04:30;13.15;;;8.07;;
26946;SDS011;14501;52.282;10.560;2022-11-20T15:06:56;13.02;;;8.07;;
26946;SDS011;14501;52.282;10.560;2022-11-20T15:09:24;12.10;;;7.25;;
26946;SDS011;14501;52.282;10.560;2022-11-20T15:11:52;15.48;;;8.15;;
26946;SDS011;14501;52.282;10.560;2022-11-20T15:14:18;12.70;;;7.70;;
26946;SDS011;14501;52.282;10.560;2022-11-20T15:16:43;13.23;;;7.40;;
26946;SDS011;14501;52.282;10.560;2022-11-20T15:19:14;12.07;;;7.55;;
26946;SDS011;14501;52.282;10.560;2022-11-20T15:21:44;14.23;;;8.35;;
26946;SDS011;14501;52.282;10.560;2022-11-20T15:24:09;17.33;;;8.60;;
26946;SDS011;14501;52.282;10.560;2022-11-20T15:26:35;15.38;;;8.18;;
26946;SDS011;14501;52.282;10.560;2022-11-20T15:29:02;13.38;;;8.65;;
26946;SDS011;14501;52.282;10.560;2022-11-20T15:31:29;14.73;;;8.48;;
26946;SDS011;14501;52.282;10.560;2022-11-20T15:33:54;11.95;;;7.65;;
26946;SDS011;14501;52.282;10.560;2022-11-20T15:36:20;16.17;;;8.73;;
26946;SDS011;14501;52.282;10.560;2022-11-20T15:38:46;15.63;;;8.48;;
26946;SDS011;14501;52.282;10.560;2022-11-20T15:41:11;13.02;;;8.40;;
26946;SDS011;14501;52.282;10.560;2022-11-20T15:43:37;14.52;;;8.50;;
26946;SDS011;14501;52.282;10.560;2022-11-20T15:46:05;14.15;;;8.75;;
26946;SDS011;14501;52.282;10.560;2022-11-20T15:48:37;14.98;;;8.48;;
26946;SDS011;14501;52.282;10.560;2022-11-20T15:53:40;15.85;;;8.98;;
26946;SDS011;14501;52.282;10.560;2022-11-20T15:56:12;17.42;;;10.20;;
26946;SDS011;14501;52.282;10.560;2022-11-20T15:58:39;19.05;;;9.70;;
26946;SDS011;14501;52.282;10.560;2022-11-20T16:01:05;17.38;;;10.32;;
26946;SDS011;14501;52.282;10.560;2022-11-20T16:03:35;17.80;;;10.43;;
26946;SDS011;14501;52.282;10.560;2022-11-20T16:06:00;17.23;;;9.68;;
26946;SDS011;14501;52.282;10.560;2022-11-20T16:08:26;16.38;;;9.20;;
26946;SDS011;14501;52.282;10.560;2022-11-20T16:10:51;17.45;;;10.02;;
26946;SDS011;14501;52.282;10.560;2022-11-20T16:13:17;17.58;;;9.88;;
26946;SDS011;14501;52.282;10.560;2022-11-20T16:16:06;18.25;;;9.65;;
26946;SDS011;14501;52.282;10.560;2022-11-20T16:18:44;17.17;;;9.43;;
26946;SDS011;14501;52.282;10.560;2022-11-20T16:21:12;19.70;;;11.18;;
26946;SDS011;14501;52.282;10.560;2022-11-20T16:23:38;16.92;;;10.25;;
26946;SDS011;14501;52.282;10.560;2022-11-20T16:26:38;16.85;;;10.23;;
26946;SDS011;14501;52.282;10.560;2022-11-20T16:28:58;22.43;;;11.57;;
26946;SDS011;14501;52.282;10.560;2022-11-20T16:31:24;21.77;;;11.93;;
26946;SDS011;14501;52.282;10.560;2022-11-20T16:33:53;22.40;;;13.75;;